sensor_id;sensor_type;location;lat;lon;timestamp;temperature;humidity
296;DHT22;132;48.770;9.200;2022-08-24T00:01:12;19.90;1.00
296;DHT22;132;48.770;9.200;2022-08-24T00:03:49;19.90;1.00
296;DHT22;132;48.770;9.200;2022-08-24T00:06:27;19.80;1.00
296;DHT22;132;48.770;9.200;2022-08-24T00:08:59;19.70;1.00
296;DHT22;132;48.770;9.200;2022-08-24T00:11:34;19.70;1.00
296;DHT22;132;48.770;9.200;2022-08-24T00:14:07;19.70;1.00
296;DHT22;132;48.770;9.200;2022-08-24T00:16:41;19.60;1.00
296;DHT22;132;48.770;9.200;2022-08-24T00:19:12;19.30;1.00
296;DHT22;132;48.770;9.200;2022-08-24T00:21:46;19.50;1.00
296;DHT22;132;48.770;9.200;2022-08-24T00:24:17;19.50;1.00
296;DHT22;132;48.770;9.200;2022-08-24T00:26:52;19.50;1.00
296;DHT22;132;48.770;9.200;2022-08-24T00:29:25;19.40;1.00
296;DHT22;132;48.770;9.200;2022-08-24T00:31:55;19.40;1.00
296;DHT22;132;48.770;9.200;2022-08-24T00:34:26;19.40;1.00
296;DHT22;132;48.770;9.200;2022-08-24T00:36:57;19.30;1.00
296;DHT22;132;48.770;9.200;2022-08-24T00:39:29;19.40;1.00
296;DHT22;132;48.770;9.200;2022-08-24T00:42:00;19.30;1.00
296;DHT22;132;48.770;9.200;2022-08-24T00:44:34;19.20;1.00
296;DHT22;132;48.770;9.200;2022-08-24T00:47:18;19.20;1.00
296;DHT22;132;48.770;9.200;2022-08-24T00:50:05;19.20;1.00
296;DHT22;132;48.770;9.200;2022-08-24T00:52:48;19.20;1.00
296;DHT22;132;48.770;9.200;2022-08-24T00:55:37;19.20;1.00
296;DHT22;132;48.770;9.200;2022-08-24T00:58:15;19.30;1.00
296;DHT22;132;48.770;9.200;2022-08-24T01:00:55;19.10;1.00
296;DHT22;132;48.770;9.200;2022-08-24T01:03:33;19.00;1.00
296;DHT22;132;48.770;9.200;2022-08-24T01:06:09;19.10;1.00
296;DHT22;132;48.770;9.200;2022-08-24T01:08:47;19.20;1.00
296;DHT22;132;48.770;9.200;2022-08-24T01:11:22;18.90;1.00
296;DHT22;132;48.770;9.200;2022-08-24T01:14:00;18.90;1.00
296;DHT22;132;48.770;9.200;2022-08-24T01:16:35;18.90;1.00
296;DHT22;132;48.770;9.200;2022-08-24T01:19:41;18.90;1.00
296;DHT22;132;48.770;9.200;2022-08-24T01:24:59;18.80;1.00
296;DHT22;132;48.770;9.200;2022-08-24T01:27:35;19.10;1.00
296;DHT22;132;48.770;9.200;2022-08-24T01:30:15;18.80;1.00
296;DHT22;132;48.770;9.200;2022-08-24T01:32:55;18.90;1.00
296;DHT22;132;48.770;9.200;2022-08-24T01:35:29;18.70;1.00
296;DHT22;132;48.770;9.200;2022-08-24T01:38:07;18.70;1.00
296;DHT22;132;48.770;9.200;2022-08-24T01:40:46;18.70;1.00
296;DHT22;132;48.770;9.200;2022-08-24T01:43:16;18.80;1.00
296;DHT22;132;48.770;9.200;2022-08-24T01:45:43;18.60;1.00
296;DHT22;132;48.770;9.200;2022-08-24T01:48:10;18.50;1.00
296;DHT22;132;48.770;9.200;2022-08-24T01:50:38;18.50;1.00
296;DHT22;132;48.770;9.200;2022-08-24T01:53:07;18.50;1.00
296;DHT22;132;48.770;9.200;2022-08-24T01:55:35;18.50;1.00
296;DHT22;132;48.770;9.200;2022-08-24T01:58:03;18.50;1.00
296;DHT22;132;48.770;9.200;2022-08-24T02:00:30;18.50;1.00
296;DHT22;132;48.770;9.200;2022-08-24T02:02:57;18.50;1.00
296;DHT22;132;48.770;9.200;2022-08-24T02:05:24;18.40;1.00
296;DHT22;132;48.770;9.200;2022-08-24T02:07:51;18.40;1.00
296;DHT22;132;48.770;9.200;2022-08-24T02:10:21;18.30;1.00
296;DHT22;132;48.770;9.200;2022-08-24T02:12:51;18.30;1.00
296;DHT22;132;48.770;9.200;2022-08-24T02:15:37;18.30;1.00
296;DHT22;132;48.770;9.200;2022-08-24T02:18:08;18.30;1.00
296;DHT22;132;48.770;9.200;2022-08-24T02:20:36;18.20;1.00
296;DHT22;132;48.770;9.200;2022-08-24T02:23:05;18.10;1.00
296;DHT22;132;48.770;9.200;2022-08-24T02:25:33;18.10;1.00
296;DHT22;132;48.770;9.200;2022-08-24T02:28:01;18.10;1.00
296;DHT22;132;48.770;9.200;2022-08-24T02:30:30;18.10;1.00
296;DHT22;132;48.770;9.200;2022-08-24T02:32:57;18.00;1.00
296;DHT22;132;48.770;9.200;2022-08-24T02:35:27;18.20;1.00
296;DHT22;132;48.770;9.200;2022-08-24T02:37:55;18.00;1.00
296;DHT22;132;48.770;9.200;2022-08-24T02:40:33;18.00;1.00
296;DHT22;132;48.770;9.200;2022-08-24T02:43:02;18.20;1.00
296;DHT22;132;48.770;9.200;2022-08-24T02:45:29;17.90;1.00
296;DHT22;132;48.770;9.200;2022-08-24T02:47:57;17.90;1.00
296;DHT22;132;48.770;9.200;2022-08-24T02:50:25;17.90;1.00
296;DHT22;132;48.770;9.200;2022-08-24T02:52:53;17.00;1.00
296;DHT22;132;48.770;9.200;2022-08-24T02:55:20;17.90;1.00
296;DHT22;132;48.770;9.200;2022-08-24T02:57:47;17.80;1.00
296;DHT22;132;48.770;9.200;2022-08-24T03:00:18;17.80;1.00
296;DHT22;132;48.770;9.200;2022-08-24T03:02:51;17.80;1.00
296;DHT22;132;48.770;9.200;2022-08-24T03:05:18;17.80;1.00
296;DHT22;132;48.770;9.200;2022-08-24T03:07:46;17.70;1.00
296;DHT22;132;48.770;9.200;2022-08-24T03:10:13;17.60;1.00
296;DHT22;132;48.770;9.200;2022-08-24T03:12:40;17.60;1.00
296;DHT22;132;48.770;9.200;2022-08-24T03:15:09;17.60;1.00
296;DHT22;132;48.770;9.200;2022-08-24T03:17:36;17.60;1.00
296;DHT22;132;48.770;9.200;2022-08-24T03:20:06;17.60;1.00
296;DHT22;132;48.770;9.200;2022-08-24T03:22:34;17.60;1.00
296;DHT22;132;48.770;9.200;2022-08-24T03:25:02;17.60;1.00
296;DHT22;132;48.770;9.200;2022-08-24T03:27:29;17.50;1.00
296;DHT22;132;48.770;9.200;2022-08-24T03:29:55;17.50;1.00
296;DHT22;132;48.770;9.200;2022-08-24T03:32:23;17.70;1.00
296;DHT22;132;48.770;9.200;2022-08-24T03:34:50;17.50;1.00
296;DHT22;132;48.770;9.200;2022-08-24T03:37:17;17.50;1.00
296;DHT22;132;48.770;9.200;2022-08-24T03:39:44;17.50;1.00
296;DHT22;132;48.770;9.200;2022-08-24T03:42:13;17.50;1.00
296;DHT22;132;48.770;9.200;2022-08-24T03:44:40;17.50;1.00
296;DHT22;132;48.770;9.200;2022-08-24T03:47:08;17.50;1.00
296;DHT22;132;48.770;9.200;2022-08-24T03:49:37;17.50;1.00
296;DHT22;132;48.770;9.200;2022-08-24T03:52:05;17.40;1.00
296;DHT22;132;48.770;9.200;2022-08-24T03:54:33;17.40;1.00
296;DHT22;132;48.770;9.200;2022-08-24T03:57:00;17.40;1.00
296;DHT22;132;48.770;9.200;2022-08-24T03:59:27;17.30;1.00
296;DHT22;132;48.770;9.200;2022-08-24T04:01:57;17.40;1.00
296;DHT22;132;48.770;9.200;2022-08-24T04:04:26;17.30;1.00
296;DHT22;132;48.770;9.200;2022-08-24T04:06:53;17.20;1.00
296;DHT22;132;48.770;9.200;2022-08-24T04:09:20;17.20;1.00
296;DHT22;132;48.770;9.200;2022-08-24T04:11:48;17.30;1.00
296;DHT22;132;48.770;9.200;2022-08-24T04:14:16;17.20;1.00
296;DHT22;132;48.770;9.200;2022-08-24T04:16:47;17.20;1.00
296;DHT22;132;48.770;9.200;2022-08-24T04:19:24;17.20;1.00
296;DHT22;132;48.770;9.200;2022-08-24T04:21:51;17.20;1.00
296;DHT22;132;48.770;9.200;2022-08-24T04:24:19;17.20;1.00
296;DHT22;132;48.770;9.200;2022-08-24T04:26:46;17.10;1.00
296;DHT22;132;48.770;9.200;2022-08-24T04:29:17;17.10;1.00
296;DHT22;132;48.770;9.200;2022-08-24T04:31:53;17.10;1.00
296;DHT22;132;48.770;9.200;2022-08-24T04:34:22;17.10;1.00
296;DHT22;132;48.770;9.200;2022-08-24T04:36:50;17.10;1.00
296;DHT22;132;48.770;9.200;2022-08-24T04:39:18;17.10;1.00
296;DHT22;132;48.770;9.200;2022-08-24T04:42:04;17.10;1.00
296;DHT22;132;48.770;9.200;2022-08-24T04:44:37;17.10;1.00
296;DHT22;132;48.770;9.200;2022-08-24T04:47:04;17.10;1.00
296;DHT22;132;48.770;9.200;2022-08-24T04:49:35;17.10;1.00
296;DHT22;132;48.770;9.200;2022-08-24T04:52:03;17.20;1.00
296;DHT22;132;48.770;9.200;2022-08-24T04:54:31;17.20;1.00
296;DHT22;132;48.770;9.200;2022-08-24T04:57:16;17.20;1.00
296;DHT22;132;48.770;9.200;2022-08-24T04:59:43;17.20;1.00
296;DHT22;132;48.770;9.200;2022-08-24T05:02:10;17.20;1.00
296;DHT22;132;48.770;9.200;2022-08-24T05:04:37;17.30;1.00
296;DHT22;132;48.770;9.200;2022-08-24T05:07:06;17.30;1.00
296;DHT22;132;48.770;9.200;2022-08-24T05:09:34;17.30;1.00
296;DHT22;132;48.770;9.200;2022-08-24T05:12:01;17.40;1.00
296;DHT22;132;48.770;9.200;2022-08-24T05:14:32;17.40;1.00
296;DHT22;132;48.770;9.200;2022-08-24T05:16:59;17.50;1.00
296;DHT22;132;48.770;9.200;2022-08-24T05:19:26;17.50;1.00
296;DHT22;132;48.770;9.200;2022-08-24T05:21:53;17.60;1.00
296;DHT22;132;48.770;9.200;2022-08-24T05:24:21;17.60;1.00
296;DHT22;132;48.770;9.200;2022-08-24T05:26:48;17.70;1.00
296;DHT22;132;48.770;9.200;2022-08-24T05:29:17;17.90;1.00
296;DHT22;132;48.770;9.200;2022-08-24T05:31:47;18.00;1.00
296;DHT22;132;48.770;9.200;2022-08-24T05:34:14;17.90;1.00
296;DHT22;132;48.770;9.200;2022-08-24T05:36:41;18.10;1.00
296;DHT22;132;48.770;9.200;2022-08-24T05:39:14;18.20;1.00
296;DHT22;132;48.770;9.200;2022-08-24T05:41:44;18.20;1.00
296;DHT22;132;48.770;9.200;2022-08-24T05:44:18;18.20;1.00
296;DHT22;132;48.770;9.200;2022-08-24T05:46:46;18.30;1.00
296;DHT22;132;48.770;9.200;2022-08-24T05:49:13;18.30;1.00
296;DHT22;132;48.770;9.200;2022-08-24T05:51:40;18.40;1.00
296;DHT22;132;48.770;9.200;2022-08-24T05:54:10;18.40;1.00
296;DHT22;132;48.770;9.200;2022-08-24T05:56:56;18.50;1.00
296;DHT22;132;48.770;9.200;2022-08-24T05:59:27;18.50;1.00
296;DHT22;132;48.770;9.200;2022-08-24T06:01:55;18.60;1.00
296;DHT22;132;48.770;9.200;2022-08-24T06:04:22;18.60;1.00
296;DHT22;132;48.770;9.200;2022-08-24T06:06:49;18.70;1.00
296;DHT22;132;48.770;9.200;2022-08-24T06:09:17;18.70;1.00
296;DHT22;132;48.770;9.200;2022-08-24T06:11:44;18.80;1.00
296;DHT22;132;48.770;9.200;2022-08-24T06:14:16;18.80;1.00
296;DHT22;132;48.770;9.200;2022-08-24T06:16:54;18.90;1.00
296;DHT22;132;48.770;9.200;2022-08-24T06:19:22;19.00;1.00
296;DHT22;132;48.770;9.200;2022-08-24T06:21:50;19.00;1.00
296;DHT22;132;48.770;9.200;2022-08-24T06:24:18;19.00;1.00
296;DHT22;132;48.770;9.200;2022-08-24T06:27:07;19.10;1.00
296;DHT22;132;48.770;9.200;2022-08-24T06:29:59;19.20;1.00
296;DHT22;132;48.770;9.200;2022-08-24T06:33:09;19.30;1.00
296;DHT22;132;48.770;9.200;2022-08-24T06:35:48;19.40;1.00
296;DHT22;132;48.770;9.200;2022-08-24T06:38:29;19.40;1.00
296;DHT22;132;48.770;9.200;2022-08-24T06:41:02;19.40;1.00
296;DHT22;132;48.770;9.200;2022-08-24T06:43:46;19.50;1.00
296;DHT22;132;48.770;9.200;2022-08-24T06:46:24;19.80;1.00
296;DHT22;132;48.770;9.200;2022-08-24T06:48:59;19.60;1.00
296;DHT22;132;48.770;9.200;2022-08-24T06:51:32;19.60;1.00
296;DHT22;132;48.770;9.200;2022-08-24T06:54:04;19.70;1.00
296;DHT22;132;48.770;9.200;2022-08-24T06:56:39;19.80;1.00
296;DHT22;132;48.770;9.200;2022-08-24T06:59:14;19.80;1.00
296;DHT22;132;48.770;9.200;2022-08-24T07:01:50;19.90;1.00
296;DHT22;132;48.770;9.200;2022-08-24T07:04:24;20.00;1.00
296;DHT22;132;48.770;9.200;2022-08-24T07:07:25;20.10;1.00
296;DHT22;132;48.770;9.200;2022-08-24T07:09:59;20.20;1.00
296;DHT22;132;48.770;9.200;2022-08-24T07:12:36;20.30;1.00
296;DHT22;132;48.770;9.200;2022-08-24T07:15:08;20.40;1.00
296;DHT22;132;48.770;9.200;2022-08-24T07:17:42;20.50;1.00
296;DHT22;132;48.770;9.200;2022-08-24T07:20:14;20.60;1.00
296;DHT22;132;48.770;9.200;2022-08-24T07:23:10;20.70;1.00
296;DHT22;132;48.770;9.200;2022-08-24T07:25:45;21.00;1.00
296;DHT22;132;48.770;9.200;2022-08-24T07:28:21;20.90;1.00
296;DHT22;132;48.770;9.200;2022-08-24T07:30:52;21.00;1.00
296;DHT22;132;48.770;9.200;2022-08-24T07:33:22;21.00;1.00
296;DHT22;132;48.770;9.200;2022-08-24T07:35:56;21.10;1.00
296;DHT22;132;48.770;9.200;2022-08-24T07:38:31;21.10;1.00
296;DHT22;132;48.770;9.200;2022-08-24T07:41:07;21.20;1.00
296;DHT22;132;48.770;9.200;2022-08-24T07:43:45;21.30;1.00
296;DHT22;132;48.770;9.200;2022-08-24T07:46:18;21.30;1.00
296;DHT22;132;48.770;9.200;2022-08-24T07:48:51;21.50;1.00
296;DHT22;132;48.770;9.200;2022-08-24T07:51:27;21.60;1.00
296;DHT22;132;48.770;9.200;2022-08-24T07:54:03;21.70;1.00
296;DHT22;132;48.770;9.200;2022-08-24T07:56:41;21.90;1.00
296;DHT22;132;48.770;9.200;2022-08-24T07:59:14;22.10;1.00
296;DHT22;132;48.770;9.200;2022-08-24T08:01:46;22.50;1.00
296;DHT22;132;48.770;9.200;2022-08-24T08:04:22;22.50;1.00
296;DHT22;132;48.770;9.200;2022-08-24T08:06:59;22.60;1.00
296;DHT22;132;48.770;9.200;2022-08-24T08:09:38;22.90;1.00
296;DHT22;132;48.770;9.200;2022-08-24T08:12:14;22.90;1.00
296;DHT22;132;48.770;9.200;2022-08-24T08:15:00;23.20;1.00
296;DHT22;132;48.770;9.200;2022-08-24T08:17:32;23.10;1.00
296;DHT22;132;48.770;9.200;2022-08-24T08:20:06;23.20;1.00
296;DHT22;132;48.770;9.200;2022-08-24T08:22:38;23.30;1.00
296;DHT22;132;48.770;9.200;2022-08-24T08:25:55;23.40;1.00
296;DHT22;132;48.770;9.200;2022-08-24T08:28:53;23.50;1.00
296;DHT22;132;48.770;9.200;2022-08-24T08:31:27;23.60;1.00
296;DHT22;132;48.770;9.200;2022-08-24T08:34:02;23.60;1.00
296;DHT22;132;48.770;9.200;2022-08-24T08:36:37;23.70;1.00
296;DHT22;132;48.770;9.200;2022-08-24T08:39:14;23.80;1.00
296;DHT22;132;48.770;9.200;2022-08-24T08:51:35;24.00;1.00
296;DHT22;132;48.770;9.200;2022-08-24T08:54:11;24.10;1.00
296;DHT22;132;48.770;9.200;2022-08-24T09:08:20;24.40;1.00
296;DHT22;132;48.770;9.200;2022-08-24T09:22:24;24.60;1.00
296;DHT22;132;48.770;9.200;2022-08-24T09:25:06;24.70;1.00
296;DHT22;132;48.770;9.200;2022-08-24T09:33:43;25.20;1.00
296;DHT22;132;48.770;9.200;2022-08-24T09:39:11;25.30;1.00
296;DHT22;132;48.770;9.200;2022-08-24T09:41:54;25.40;1.00
296;DHT22;132;48.770;9.200;2022-08-24T09:59:19;26.00;1.00
296;DHT22;132;48.770;9.200;2022-08-24T10:05:09;26.10;1.00
296;DHT22;132;48.770;9.200;2022-08-24T10:10:31;26.20;1.00
296;DHT22;132;48.770;9.200;2022-08-24T10:13:31;26.20;1.00
296;DHT22;132;48.770;9.200;2022-08-24T10:16:19;26.20;1.00
296;DHT22;132;48.770;9.200;2022-08-24T10:27:49;26.30;1.00
296;DHT22;132;48.770;9.200;2022-08-24T10:33:19;26.60;1.00
296;DHT22;132;48.770;9.200;2022-08-24T10:46:13;26.70;1.00
296;DHT22;132;48.770;9.200;2022-08-24T10:54:25;26.80;1.00
296;DHT22;132;48.770;9.200;2022-08-24T11:00:01;27.00;1.00
296;DHT22;132;48.770;9.200;2022-08-24T11:02:42;27.10;1.00
296;DHT22;132;48.770;9.200;2022-08-24T11:05:39;27.20;1.00
296;DHT22;132;48.770;9.200;2022-08-24T11:08:27;27.40;1.00
296;DHT22;132;48.770;9.200;2022-08-24T11:11:13;27.40;1.00
296;DHT22;132;48.770;9.200;2022-08-24T11:14:07;27.40;1.00
296;DHT22;132;48.770;9.200;2022-08-24T11:16:46;27.50;1.00
296;DHT22;132;48.770;9.200;2022-08-24T11:25:25;27.90;1.00
296;DHT22;132;48.770;9.200;2022-08-24T11:28:06;28.00;1.00
296;DHT22;132;48.770;9.200;2022-08-24T11:30:49;28.20;1.00
296;DHT22;132;48.770;9.200;2022-08-24T11:33:29;28.30;1.00
296;DHT22;132;48.770;9.200;2022-08-24T11:36:14;28.30;1.00
296;DHT22;132;48.770;9.200;2022-08-24T11:45:18;28.40;1.00
296;DHT22;132;48.770;9.200;2022-08-24T11:51:14;28.50;1.00
296;DHT22;132;48.770;9.200;2022-08-24T11:59:57;28.70;1.00
296;DHT22;132;48.770;9.200;2022-08-24T12:02:57;28.90;1.00
296;DHT22;132;48.770;9.200;2022-08-24T12:11:56;29.40;1.00
296;DHT22;132;48.770;9.200;2022-08-24T12:14:46;29.50;1.00
296;DHT22;132;48.770;9.200;2022-08-24T12:20:36;29.50;1.00
296;DHT22;132;48.770;9.200;2022-08-24T12:23:33;29.50;1.00
296;DHT22;132;48.770;9.200;2022-08-24T12:32:06;29.90;1.00
296;DHT22;132;48.770;9.200;2022-08-24T12:34:59;30.00;1.00
296;DHT22;132;48.770;9.200;2022-08-24T12:40:37;30.30;1.00
296;DHT22;132;48.770;9.200;2022-08-24T12:43:35;30.30;1.00
296;DHT22;132;48.770;9.200;2022-08-24T12:46:13;30.40;1.00
296;DHT22;132;48.770;9.200;2022-08-24T13:03:04;30.30;1.00
296;DHT22;132;48.770;9.200;2022-08-24T13:05:41;30.20;1.00
296;DHT22;132;48.770;9.200;2022-08-24T13:08:12;30.30;1.00
296;DHT22;132;48.770;9.200;2022-08-24T13:10:44;30.30;1.00
296;DHT22;132;48.770;9.200;2022-08-24T13:13:22;30.40;1.00
296;DHT22;132;48.770;9.200;2022-08-24T13:16:03;30.60;1.00
296;DHT22;132;48.770;9.200;2022-08-24T13:18:49;30.90;1.00
296;DHT22;132;48.770;9.200;2022-08-24T13:21:35;31.20;1.00
296;DHT22;132;48.770;9.200;2022-08-24T13:25:17;31.60;1.00
296;DHT22;132;48.770;9.200;2022-08-24T13:32:31;33.00;1.00
296;DHT22;132;48.770;9.200;2022-08-24T13:38:27;33.50;1.00
296;DHT22;132;48.770;9.200;2022-08-24T13:43:47;34.40;1.00
296;DHT22;132;48.770;9.200;2022-08-24T13:46:36;34.70;1.00
296;DHT22;132;48.770;9.200;2022-08-24T13:52:18;34.80;1.00
296;DHT22;132;48.770;9.200;2022-08-24T13:55:08;34.90;1.00
296;DHT22;132;48.770;9.200;2022-08-24T13:57:41;35.10;1.00
296;DHT22;132;48.770;9.200;2022-08-24T14:03:20;34.90;1.00
296;DHT22;132;48.770;9.200;2022-08-24T14:20:04;36.10;1.00
296;DHT22;132;48.770;9.200;2022-08-24T14:22:35;36.10;1.00
296;DHT22;132;48.770;9.200;2022-08-24T14:25:21;35.80;1.00
296;DHT22;132;48.770;9.200;2022-08-24T14:44:02;36.00;1.00
296;DHT22;132;48.770;9.200;2022-08-24T14:49:46;35.80;1.00
296;DHT22;132;48.770;9.200;2022-08-24T14:58:23;36.20;1.00
296;DHT22;132;48.770;9.200;2022-08-24T15:06:45;35.50;1.00
296;DHT22;132;48.770;9.200;2022-08-24T15:09:32;35.00;1.00
296;DHT22;132;48.770;9.200;2022-08-24T15:15:15;33.40;1.00
296;DHT22;132;48.770;9.200;2022-08-24T15:23:12;31.70;1.00
296;DHT22;132;48.770;9.200;2022-08-24T15:26:01;31.30;1.00
296;DHT22;132;48.770;9.200;2022-08-24T15:28:32;30.90;1.00
296;DHT22;132;48.770;9.200;2022-08-24T15:31:07;30.60;1.00
296;DHT22;132;48.770;9.200;2022-08-24T15:33:57;30.30;1.00
296;DHT22;132;48.770;9.200;2022-08-24T15:36:28;30.10;1.00
296;DHT22;132;48.770;9.200;2022-08-24T15:38:59;29.90;1.00
296;DHT22;132;48.770;9.200;2022-08-24T15:41:32;29.80;1.00
296;DHT22;132;48.770;9.200;2022-08-24T15:46:48;29.50;1.00
296;DHT22;132;48.770;9.200;2022-08-24T15:49:25;29.40;1.00
296;DHT22;132;48.770;9.200;2022-08-24T15:52:03;29.30;1.00
296;DHT22;132;48.770;9.200;2022-08-24T15:54:42;29.10;1.00
296;DHT22;132;48.770;9.200;2022-08-24T15:59:47;29.00;1.00
296;DHT22;132;48.770;9.200;2022-08-24T16:05:18;28.80;1.00
296;DHT22;132;48.770;9.200;2022-08-24T16:15:52;28.60;1.00
296;DHT22;132;48.770;9.200;2022-08-24T16:18:25;28.60;1.00
296;DHT22;132;48.770;9.200;2022-08-24T16:20:55;28.50;1.00
296;DHT22;132;48.770;9.200;2022-08-24T16:23:26;28.50;1.00
296;DHT22;132;48.770;9.200;2022-08-24T16:26:19;28.40;1.00
296;DHT22;132;48.770;9.200;2022-08-24T16:28:48;28.40;1.00
296;DHT22;132;48.770;9.200;2022-08-24T16:36:54;28.00;1.00
296;DHT22;132;48.770;9.200;2022-08-24T16:39:22;27.90;1.00
296;DHT22;132;48.770;9.200;2022-08-24T16:41:54;27.90;1.00
296;DHT22;132;48.770;9.200;2022-08-24T16:44:26;27.80;1.00
296;DHT22;132;48.770;9.200;2022-08-24T16:46:55;27.70;1.00
296;DHT22;132;48.770;9.200;2022-08-24T16:49:23;27.70;1.00
296;DHT22;132;48.770;9.200;2022-08-24T16:51:51;27.70;1.00
296;DHT22;132;48.770;9.200;2022-08-24T16:54:18;27.70;1.00
296;DHT22;132;48.770;9.200;2022-08-24T16:56:45;27.60;1.00
296;DHT22;132;48.770;9.200;2022-08-24T16:59:16;27.60;1.00
296;DHT22;132;48.770;9.200;2022-08-24T17:01:43;27.50;1.00
296;DHT22;132;48.770;9.200;2022-08-24T17:04:10;27.50;1.00
296;DHT22;132;48.770;9.200;2022-08-24T17:06:37;27.40;1.00
296;DHT22;132;48.770;9.200;2022-08-24T17:09:03;27.40;1.00
296;DHT22;132;48.770;9.200;2022-08-24T17:11:30;27.40;1.00
296;DHT22;132;48.770;9.200;2022-08-24T17:13:57;27.30;1.00
296;DHT22;132;48.770;9.200;2022-08-24T17:16:23;27.20;1.00
296;DHT22;132;48.770;9.200;2022-08-24T17:18:50;27.10;1.00
296;DHT22;132;48.770;9.200;2022-08-24T17:21:17;27.00;1.00
296;DHT22;132;48.770;9.200;2022-08-24T17:23:43;27.00;1.00
296;DHT22;132;48.770;9.200;2022-08-24T17:26:12;27.00;1.00
296;DHT22;132;48.770;9.200;2022-08-24T17:28:52;26.90;1.00
296;DHT22;132;48.770;9.200;2022-08-24T17:31:22;26.90;1.00
296;DHT22;132;48.770;9.200;2022-08-24T17:33:54;26.80;1.00
296;DHT22;132;48.770;9.200;2022-08-24T17:36:23;26.80;1.00
296;DHT22;132;48.770;9.200;2022-08-24T17:38:55;26.70;1.00
296;DHT22;132;48.770;9.200;2022-08-24T17:41:24;26.70;1.00
296;DHT22;132;48.770;9.200;2022-08-24T17:43:52;26.60;1.00
296;DHT22;132;48.770;9.200;2022-08-24T17:46:19;26.50;1.00
296;DHT22;132;48.770;9.200;2022-08-24T17:48:46;26.40;1.00
296;DHT22;132;48.770;9.200;2022-08-24T17:51:14;26.40;1.00
296;DHT22;132;48.770;9.200;2022-08-24T17:53:41;26.30;1.00
296;DHT22;132;48.770;9.200;2022-08-24T17:56:13;26.20;1.00
296;DHT22;132;48.770;9.200;2022-08-24T17:58:46;26.20;1.00
296;DHT22;132;48.770;9.200;2022-08-24T18:01:36;26.10;1.00
296;DHT22;132;48.770;9.200;2022-08-24T18:04:04;26.00;1.00
296;DHT22;132;48.770;9.200;2022-08-24T18:06:31;25.70;1.00
296;DHT22;132;48.770;9.200;2022-08-24T18:09:05;25.90;1.00
296;DHT22;132;48.770;9.200;2022-08-24T18:11:32;25.80;1.00
296;DHT22;132;48.770;9.200;2022-08-24T18:13:59;25.70;1.00
296;DHT22;132;48.770;9.200;2022-08-24T18:16:28;25.70;1.00
296;DHT22;132;48.770;9.200;2022-08-24T18:18:55;25.60;1.00
296;DHT22;132;48.770;9.200;2022-08-24T18:21:22;25.50;1.00
296;DHT22;132;48.770;9.200;2022-08-24T18:23:50;25.40;1.00
296;DHT22;132;48.770;9.200;2022-08-24T18:26:23;25.40;1.00
296;DHT22;132;48.770;9.200;2022-08-24T18:28:50;25.30;1.00
296;DHT22;132;48.770;9.200;2022-08-24T18:31:18;25.30;1.00
296;DHT22;132;48.770;9.200;2022-08-24T18:33:46;25.10;1.00
296;DHT22;132;48.770;9.200;2022-08-24T18:36:12;25.10;1.00
296;DHT22;132;48.770;9.200;2022-08-24T18:38:38;25.00;1.00
296;DHT22;132;48.770;9.200;2022-08-24T18:41:06;24.90;1.00
296;DHT22;132;48.770;9.200;2022-08-24T18:43:32;24.80;1.00
296;DHT22;132;48.770;9.200;2022-08-24T18:45:58;25.10;1.00
296;DHT22;132;48.770;9.200;2022-08-24T18:48:25;24.70;1.00
296;DHT22;132;48.770;9.200;2022-08-24T18:50:51;24.70;1.00
296;DHT22;132;48.770;9.200;2022-08-24T18:53:18;24.60;1.00
296;DHT22;132;48.770;9.200;2022-08-24T18:55:45;24.50;1.00
296;DHT22;132;48.770;9.200;2022-08-24T18:58:13;24.50;1.00
296;DHT22;132;48.770;9.200;2022-08-24T19:00:40;24.50;1.00
296;DHT22;132;48.770;9.200;2022-08-24T19:03:07;24.40;1.00
296;DHT22;132;48.770;9.200;2022-08-24T19:05:36;24.40;1.00
296;DHT22;132;48.770;9.200;2022-08-24T19:08:04;24.40;1.00
296;DHT22;132;48.770;9.200;2022-08-24T19:10:34;24.40;1.00
296;DHT22;132;48.770;9.200;2022-08-24T19:13:07;24.30;1.00
296;DHT22;132;48.770;9.200;2022-08-24T19:15:34;24.30;1.00
296;DHT22;132;48.770;9.200;2022-08-24T19:18:01;24.30;1.00
296;DHT22;132;48.770;9.200;2022-08-24T19:20:28;24.20;1.00
296;DHT22;132;48.770;9.200;2022-08-24T19:22:54;24.20;1.00
296;DHT22;132;48.770;9.200;2022-08-24T19:25:26;24.20;1.00
296;DHT22;132;48.770;9.200;2022-08-24T19:27:53;24.10;1.00
296;DHT22;132;48.770;9.200;2022-08-24T19:30:21;24.10;1.00
296;DHT22;132;48.770;9.200;2022-08-24T19:32:48;24.10;1.00
296;DHT22;132;48.770;9.200;2022-08-24T19:35:15;24.00;1.00
296;DHT22;132;48.770;9.200;2022-08-24T19:37:42;24.00;1.00
296;DHT22;132;48.770;9.200;2022-08-24T19:40:10;24.00;1.00
296;DHT22;132;48.770;9.200;2022-08-24T19:42:36;23.90;1.00
296;DHT22;132;48.770;9.200;2022-08-24T19:45:03;23.90;1.00
296;DHT22;132;48.770;9.200;2022-08-24T19:47:48;23.90;1.00
296;DHT22;132;48.770;9.200;2022-08-24T19:50:15;23.80;1.00
296;DHT22;132;48.770;9.200;2022-08-24T19:52:44;23.80;1.00
296;DHT22;132;48.770;9.200;2022-08-24T19:55:13;23.80;1.00
296;DHT22;132;48.770;9.200;2022-08-24T20:02:46;23.80;1.00
296;DHT22;132;48.770;9.200;2022-08-24T20:05:15;23.60;1.00
296;DHT22;132;48.770;9.200;2022-08-24T20:07:42;23.50;1.00
296;DHT22;132;48.770;9.200;2022-08-24T20:10:10;23.50;1.00
296;DHT22;132;48.770;9.200;2022-08-24T20:12:37;23.40;1.00
296;DHT22;132;48.770;9.200;2022-08-24T20:15:04;23.40;1.00
296;DHT22;132;48.770;9.200;2022-08-24T20:17:31;23.40;1.00
296;DHT22;132;48.770;9.200;2022-08-24T20:19:59;23.40;1.00
296;DHT22;132;48.770;9.200;2022-08-24T20:22:29;23.30;1.00
296;DHT22;132;48.770;9.200;2022-08-24T20:24:56;23.30;1.00
296;DHT22;132;48.770;9.200;2022-08-24T20:27:24;23.30;1.00
296;DHT22;132;48.770;9.200;2022-08-24T20:29:53;23.20;1.00
296;DHT22;132;48.770;9.200;2022-08-24T20:32:21;23.20;1.00
296;DHT22;132;48.770;9.200;2022-08-24T20:34:50;23.20;1.00
296;DHT22;132;48.770;9.200;2022-08-24T20:37:21;23.10;1.00
296;DHT22;132;48.770;9.200;2022-08-24T20:39:48;23.10;1.00
296;DHT22;132;48.770;9.200;2022-08-24T20:42:15;23.10;1.00
296;DHT22;132;48.770;9.200;2022-08-24T20:44:42;23.10;1.00
296;DHT22;132;48.770;9.200;2022-08-24T20:47:12;23.10;1.00
296;DHT22;132;48.770;9.200;2022-08-24T20:53:10;22.90;1.00
296;DHT22;132;48.770;9.200;2022-08-24T20:55:39;22.90;1.00
296;DHT22;132;48.770;9.200;2022-08-24T20:58:07;22.90;1.00
296;DHT22;132;48.770;9.200;2022-08-24T21:00:34;22.80;1.00
296;DHT22;132;48.770;9.200;2022-08-24T21:03:03;22.80;1.00
296;DHT22;132;48.770;9.200;2022-08-24T21:05:31;22.70;1.00
296;DHT22;132;48.770;9.200;2022-08-24T21:07:58;22.70;1.00
296;DHT22;132;48.770;9.200;2022-08-24T21:10:25;22.70;1.00
296;DHT22;132;48.770;9.200;2022-08-24T21:12:52;22.70;1.00
296;DHT22;132;48.770;9.200;2022-08-24T21:15:20;22.70;1.00
296;DHT22;132;48.770;9.200;2022-08-24T21:17:48;22.70;1.00
296;DHT22;132;48.770;9.200;2022-08-24T21:20:17;22.60;1.00
296;DHT22;132;48.770;9.200;2022-08-24T21:22:46;22.60;1.00
296;DHT22;132;48.770;9.200;2022-08-24T21:25:15;22.60;1.00
296;DHT22;132;48.770;9.200;2022-08-24T21:27:46;22.60;1.00
296;DHT22;132;48.770;9.200;2022-08-24T21:30:18;22.60;1.00
296;DHT22;132;48.770;9.200;2022-08-24T21:32:46;22.60;1.00
296;DHT22;132;48.770;9.200;2022-08-24T21:35:33;22.60;1.00
296;DHT22;132;48.770;9.200;2022-08-24T21:38:00;22.50;1.00
296;DHT22;132;48.770;9.200;2022-08-24T21:40:27;22.50;1.00
296;DHT22;132;48.770;9.200;2022-08-24T21:42:54;22.50;1.00